createdAt,value
2022-11-24T00:01:18.422Z,14.55
2022-11-24T00:03:51.199Z,12.15
2022-11-24T00:06:18.724Z,17.15
2022-11-24T00:08:47.028Z,10.13
2022-11-24T00:11:25.816Z,20.23
2022-11-24T00:13:53.733Z,13.23
2022-11-24T00:16:29.262Z,14.30
2022-11-24T00:18:58.790Z,13.55
2022-11-24T00:21:27.547Z,13.70
2022-11-24T00:23:55.431Z,13.88
2022-11-24T00:26:34.611Z,10.13
2022-11-24T00:29:05.621Z,14.45
2022-11-24T00:31:38.731Z,13.05
2022-11-24T00:34:10.195Z,15.90
2022-11-24T00:36:38.257Z,15.48
2022-11-24T00:39:11.720Z,16.60
2022-11-24T00:41:39.435Z,12.25
2022-11-24T00:44:07.239Z,16.95
2022-11-24T00:46:35.136Z,15.60
2022-11-24T00:49:02.888Z,14.77
2022-11-24T00:51:30.635Z,11.35
2022-11-24T00:53:59.236Z,13.15
2022-11-24T00:56:27.703Z,13.95
2022-11-24T00:58:55.345Z,13.35
2022-11-24T01:01:25.631Z,12.23
2022-11-24T01:03:55.318Z,13.95
2022-11-24T01:06:28.554Z,14.73
2022-11-24T01:08:57.980Z,14.02
2022-11-24T01:11:54.343Z,18.30
2022-11-24T01:14:24.415Z,11.00
2022-11-24T01:16:52.350Z,13.38
2022-11-24T01:19:20.050Z,15.25
2022-11-24T01:21:47.956Z,12.77
2022-11-24T01:24:15.588Z,15.23
2022-11-24T01:26:43.209Z,12.27
2022-11-24T01:29:12.040Z,12.35
2022-11-24T01:31:39.747Z,10.50
2022-11-24T01:34:07.318Z,12.35
2022-11-24T01:36:34.964Z,13.05
2022-11-24T01:39:02.547Z,11.95
2022-11-24T01:41:30.079Z,14.07
2022-11-24T01:43:57.967Z,11.18
2022-11-24T01:46:46.032Z,12.77
2022-11-24T01:49:23.091Z,12.57
2022-11-24T01:52:05.470Z,14.20
2022-11-24T01:54:36.979Z,10.48
2022-11-24T01:57:30.290Z,14.32
2022-11-24T02:00:04.544Z,15.55
2022-11-24T02:02:43.429Z,15.20
2022-11-24T02:05:24.325Z,14.75
2022-11-24T02:07:54.294Z,14.02
2022-11-24T02:10:23.484Z,11.02
2022-11-24T02:12:52.749Z,15.60
2022-11-24T02:15:21.195Z,13.80
2022-11-24T02:17:48.751Z,10.77
2022-11-24T02:20:16.960Z,18.88
2022-11-24T02:22:56.416Z,14.18
2022-11-24T02:25:42.054Z,10.80
2022-11-24T02:28:14.017Z,14.27
2022-11-24T02:30:41.737Z,13.23
2022-11-24T02:33:10.596Z,12.85
2022-11-24T02:35:38.694Z,16.35
2022-11-24T02:38:06.294Z,15.32
2022-11-24T02:40:33.992Z,11.98
2022-11-24T02:43:07.951Z,14.55
2022-11-24T02:45:35.536Z,14.13
2022-11-24T02:48:03.275Z,12.82
2022-11-24T02:50:30.850Z,13.40
2022-11-24T02:52:58.437Z,14.52
2022-11-24T02:55:26.097Z,19.27
2022-11-24T02:57:53.632Z,14.90
2022-11-24T03:00:21.972Z,11.50
2022-11-24T03:02:49.680Z,15.02
2022-11-24T03:05:17.375Z,13.75
2022-11-24T03:07:45.037Z,13.30
2022-11-24T03:10:12.654Z,14.73
2022-11-24T03:12:40.287Z,16.05
2022-11-24T03:15:08.281Z,15.63
2022-11-24T03:17:36.062Z,15.57
2022-11-24T03:20:05.297Z,15.88
2022-11-24T03:22:33.276Z,13.73
2022-11-24T03:25:01.030Z,18.17
2022-11-24T03:27:28.568Z,15.10
2022-11-24T03:29:56.127Z,16.17
2022-11-24T03:32:23.802Z,17.35
2022-11-24T03:34:51.327Z,17.35
2022-11-24T03:37:18.882Z,14.20
2022-11-24T03:39:46.442Z,17.27
2022-11-24T03:42:14.151Z,19.75
2022-11-24T03:44:41.695Z,16.85
2022-11-24T03:47:10.778Z,14.60
2022-11-24T03:49:38.704Z,17.35
2022-11-24T03:52:08.203Z,20.40
2022-11-24T03:54:36.383Z,22.48
2022-11-24T03:57:04.060Z,14.35
2022-11-24T03:59:31.589Z,14.65
2022-11-24T04:01:59.176Z,15.38
2022-11-24T04:04:26.749Z,20.17
2022-11-24T04:06:54.276Z,15.32
2022-11-24T04:09:21.916Z,14.55
2022-11-24T04:12:07.767Z,19.75
2022-11-24T04:17:04.406Z,16.45
2022-11-24T04:19:31.948Z,12.77
2022-11-24T04:21:59.551Z,13.75
2022-11-24T04:24:27.153Z,15.27
2022-11-24T04:26:54.707Z,13.48
2022-11-24T04:29:22.263Z,15.43
2022-11-24T04:31:49.849Z,15.75
2022-11-24T04:34:17.419Z,15.80
2022-11-24T04:36:44.955Z,18.45
2022-11-24T04:39:22.974Z,13.45
2022-11-24T04:41:53.729Z,12.27
2022-11-24T04:44:21.295Z,12.25
2022-11-24T04:46:49.129Z,8.73
2022-11-24T04:49:16.775Z,8.18
2022-11-24T04:51:44.587Z,5.60
2022-11-24T04:54:13.802Z,9.30
2022-11-24T04:56:42.321Z,8.23
2022-11-24T04:59:16.192Z,8.07
2022-11-24T05:01:45.063Z,6.95
2022-11-24T05:04:14.329Z,8.23
2022-11-24T05:06:42.279Z,7.13
2022-11-24T05:09:13.600Z,6.18
2022-11-24T05:11:41.416Z,7.50
2022-11-24T05:14:08.972Z,7.65
2022-11-24T05:16:37.834Z,5.05
2022-11-24T05:19:05.517Z,9.50
2022-11-24T05:21:33.285Z,7.88
2022-11-24T05:24:00.852Z,8.43
2022-11-24T05:26:29.027Z,7.22
2022-11-24T05:28:56.626Z,10.85
2022-11-24T05:31:24.228Z,10.07
2022-11-24T05:33:51.802Z,12.32
2022-11-24T05:36:37.827Z,8.55
2022-11-24T05:41:32.872Z,13.25
2022-11-24T05:44:01.517Z,6.88
2022-11-24T05:46:29.157Z,9.48
2022-11-24T05:48:56.824Z,12.25
2022-11-24T05:51:24.371Z,10.27
2022-11-24T05:53:51.904Z,10.30
2022-11-24T05:56:19.453Z,10.65
2022-11-24T05:58:46.990Z,11.20
2022-11-24T06:01:14.583Z,9.15
2022-11-24T06:03:42.196Z,13.02
2022-11-24T06:06:10.466Z,12.02
2022-11-24T06:08:38.014Z,10.65
2022-11-24T06:11:17.588Z,11.88
2022-11-24T06:13:47.006Z,12.43
2022-11-24T06:16:15.295Z,11.73
2022-11-24T06:18:43.020Z,14.02
2022-11-24T06:21:11.868Z,11.18
2022-11-24T06:23:40.429Z,13.27
2022-11-24T06:26:09.154Z,15.00
2022-11-24T06:28:36.959Z,11.43
2022-11-24T06:31:05.417Z,10.60
2022-11-24T06:33:34.575Z,6.25
2022-11-24T06:36:07.928Z,8.43
2022-11-24T06:38:36.309Z,11.75
2022-11-24T06:41:22.290Z,9.23
2022-11-24T06:43:50.087Z,8.32
2022-11-24T06:46:17.716Z,13.00
2022-11-24T06:48:45.388Z,13.90
2022-11-24T06:51:13.609Z,10.95
2022-11-24T06:53:41.562Z,12.43
2022-11-24T06:56:16.732Z,8.68
2022-11-24T06:58:46.542Z,10.47
2022-11-24T07:01:25.844Z,11.98
2022-11-24T07:03:54.607Z,10.23
2022-11-24T07:06:23.625Z,9.05
2022-11-24T07:08:51.751Z,11.98
2022-11-24T07:11:22.327Z,15.55
2022-11-24T07:13:56.505Z,9.27
2022-11-24T07:16:26.946Z,9.18
2022-11-24T07:18:55.284Z,8.48
2022-11-24T07:21:23.981Z,10.00
2022-11-24T07:23:52.979Z,7.30
2022-11-24T07:26:22.601Z,9.75
2022-11-24T07:28:50.851Z,10.00
2022-11-24T07:31:24.979Z,10.75
2022-11-24T07:33:54.273Z,8.13
2022-11-24T07:36:22.704Z,8.75
2022-11-24T07:38:50.557Z,8.13
2022-11-24T07:41:19.670Z,11.60
2022-11-24T07:43:47.779Z,10.23
2022-11-24T07:46:17.465Z,10.23
2022-11-24T07:48:45.653Z,5.97
2022-11-24T07:51:13.376Z,8.65
2022-11-24T07:53:41.083Z,8.90
2022-11-24T07:56:10.065Z,9.10
2022-11-24T07:58:38.390Z,12.02
2022-11-24T08:01:13.337Z,8.15
2022-11-24T08:03:41.469Z,9.82
2022-11-24T08:06:24.490Z,7.05
2022-11-24T08:11:23.033Z,11.27
2022-11-24T08:13:50.653Z,12.63
2022-11-24T08:16:19.338Z,9.45
2022-11-24T08:18:55.075Z,10.88
2022-11-24T08:21:23.672Z,10.73
2022-11-24T08:23:55.223Z,10.88
2022-11-24T08:26:24.848Z,7.55
2022-11-24T08:28:59.751Z,10.43
2022-11-24T08:31:33.383Z,11.02
2022-11-24T08:34:02.464Z,11.60
2022-11-24T08:36:30.086Z,9.30
2022-11-24T08:38:59.215Z,11.18
2022-11-24T08:41:27.714Z,10.98
2022-11-24T08:43:55.804Z,12.32
2022-11-24T08:46:24.001Z,12.48
2022-11-24T08:48:53.689Z,12.93
2022-11-24T08:51:24.113Z,11.68
2022-11-24T08:53:58.429Z,15.20
2022-11-24T08:56:30.539Z,13.77
2022-11-24T08:58:58.286Z,11.10
2022-11-24T09:01:26.417Z,10.90
2022-11-24T09:03:54.511Z,9.15
2022-11-24T09:06:25.105Z,10.93
2022-11-24T09:08:54.368Z,8.95
2022-11-24T09:11:22.621Z,8.55
2022-11-24T09:13:50.474Z,11.60
2022-11-24T09:16:23.149Z,8.25
2022-11-24T09:18:59.626Z,11.20
2022-11-24T09:21:27.889Z,14.15
2022-11-24T09:23:55.930Z,13.25
2022-11-24T09:26:29.150Z,12.82
2022-11-24T09:28:57.812Z,13.88
2022-11-24T09:31:27.677Z,12.50
2022-11-24T09:33:55.508Z,15.75
2022-11-24T09:36:23.561Z,12.77
2022-11-24T09:38:51.244Z,10.80
2022-11-24T09:41:28.029Z,12.95
2022-11-24T09:44:03.049Z,13.63
2022-11-24T09:46:59.806Z,13.07
2022-11-24T09:49:39.332Z,14.07
2022-11-24T09:52:11.357Z,12.40
2022-11-24T09:54:47.072Z,12.30
2022-11-24T09:57:15.739Z,15.40
2022-11-24T09:59:43.470Z,12.88
2022-11-24T10:02:13.057Z,15.18
2022-11-24T10:04:43.317Z,15.98
2022-11-24T10:07:42.821Z,14.90
2022-11-24T10:10:24.513Z,12.48
2022-11-24T10:13:25.331Z,10.23
2022-11-24T10:16:11.016Z,16.58
2022-11-24T10:18:41.704Z,19.27
2022-11-24T10:21:22.620Z,13.60
2022-11-24T10:23:55.210Z,16.83
2022-11-24T10:26:42.391Z,12.23
2022-11-24T10:29:20.483Z,18.60
2022-11-24T10:31:51.965Z,11.52
2022-11-24T10:34:35.246Z,14.90
2022-11-24T10:37:14.421Z,19.17
2022-11-24T10:40:13.632Z,18.13
2022-11-24T10:42:54.408Z,17.35
2022-11-24T10:45:22.841Z,16.02
2022-11-24T10:47:50.731Z,19.95
2022-11-24T10:50:37.104Z,16.65
2022-11-24T10:53:10.439Z,22.55
2022-11-24T10:55:57.702Z,14.80
2022-11-24T10:58:40.417Z,18.05
2022-11-24T11:01:14.012Z,17.88
2022-11-24T11:03:55.940Z,20.67
2022-11-24T11:06:25.759Z,17.63
2022-11-24T11:09:08.664Z,19.45
2022-11-24T11:11:39.224Z,21.70
2022-11-24T11:14:08.909Z,18.05
2022-11-24T11:16:38.330Z,23.92
2022-11-24T11:19:49.367Z,15.70
2022-11-24T11:22:26.478Z,23.42
2022-11-24T11:25:11.342Z,13.93
2022-11-24T11:27:40.761Z,15.82
2022-11-24T11:36:13.690Z,21.33
2022-11-24T11:38:41.764Z,17.50
2022-11-24T11:41:19.208Z,19.80
2022-11-24T11:43:49.114Z,16.88
2022-11-24T11:46:17.141Z,14.30
2022-11-24T11:48:46.900Z,16.67
2022-11-24T11:51:24.435Z,21.10
2022-11-24T11:54:16.708Z,22.95
2022-11-24T11:56:49.742Z,18.98
2022-11-24T11:59:45.293Z,15.73
2022-11-24T12:02:53.181Z,23.42
2022-11-24T12:05:31.677Z,18.05
2022-11-24T12:08:21.007Z,19.83
2022-11-24T12:10:58.844Z,20.40
2022-11-24T12:14:01.437Z,20.00
2022-11-24T12:16:52.744Z,19.25
2022-11-24T12:19:41.969Z,19.15
2022-11-24T12:22:33.748Z,18.73
2022-11-24T12:25:26.298Z,19.90
2022-11-24T12:28:11.315Z,22.23
2022-11-24T12:31:07.950Z,18.52
2022-11-24T12:34:03.168Z,14.43
2022-11-24T12:36:33.578Z,20.15
2022-11-24T12:39:19.903Z,25.90
2022-11-24T12:42:41.450Z,17.05
2022-11-24T12:45:28.589Z,14.90
2022-11-24T12:48:13.906Z,20.23
2022-11-24T12:50:43.437Z,17.52
2022-11-24T12:53:19.039Z,16.58
2022-11-24T12:55:47.234Z,17.90
2022-11-24T12:58:21.000Z,16.25
2022-11-24T13:01:19.373Z,15.80
2022-11-24T13:03:56.128Z,18.60
2022-11-24T13:06:49.035Z,19.75
2022-11-24T13:09:17.731Z,15.85
2022-11-24T13:11:50.513Z,17.52
2022-11-24T13:14:18.930Z,15.60
2022-11-24T13:19:45.776Z,16.77
2022-11-24T13:22:24.893Z,19.92
2022-11-24T13:25:21.723Z,13.30
2022-11-24T13:27:53.119Z,17.17
2022-11-24T13:30:36.104Z,14.55
2022-11-24T13:33:16.608Z,17.88
2022-11-24T13:36:03.063Z,16.35
2022-11-24T13:41:32.194Z,14.50
2022-11-24T13:44:23.529Z,14.02
2022-11-24T13:47:06.967Z,14.73
2022-11-24T13:49:42.528Z,17.98
2022-11-24T13:52:36.580Z,18.88
2022-11-24T13:55:11.788Z,21.45
2022-11-24T13:57:56.165Z,21.40
2022-11-24T14:00:34.075Z,17.00
2022-11-24T14:03:06.932Z,14.98
2022-11-24T14:05:38.146Z,17.08
2022-11-24T14:08:21.503Z,13.25
2022-11-24T14:10:49.387Z,12.02
2022-11-24T14:13:21.153Z,13.02
2022-11-24T14:16:13.637Z,12.15
2022-11-24T14:18:43.284Z,17.92
2022-11-24T14:21:31.245Z,15.70
2022-11-24T14:24:01.357Z,15.70
2022-11-24T14:26:39.992Z,17.60
2022-11-24T14:29:21.915Z,20.75
2022-11-24T14:31:57.991Z,13.57
2022-11-24T14:34:28.329Z,16.35
2022-11-24T14:36:56.948Z,17.20
2022-11-24T14:39:26.416Z,20.77
2022-11-24T14:42:05.542Z,13.63
2022-11-24T14:44:41.891Z,13.02
2022-11-24T14:49:45.317Z,12.18
2022-11-24T14:52:16.010Z,16.92
2022-11-24T14:55:03.962Z,13.75
2022-11-24T14:57:45.377Z,15.43
2022-11-24T15:00:12.914Z,15.48
2022-11-24T15:02:48.502Z,17.40
2022-11-24T15:05:16.622Z,20.20
2022-11-24T15:07:46.607Z,14.30
2022-11-24T15:10:35.274Z,14.43
2022-11-24T15:13:05.674Z,18.35
2022-11-24T15:15:35.871Z,16.17
2022-11-24T15:18:05.349Z,18.23
2022-11-24T15:20:47.570Z,14.55
2022-11-24T15:23:36.219Z,18.10
2022-11-24T15:26:06.648Z,14.63
2022-11-24T15:28:34.252Z,21.17
2022-11-24T15:31:09.211Z,16.58
2022-11-24T15:33:37.024Z,16.63
2022-11-24T15:36:04.963Z,15.15
2022-11-24T15:38:32.560Z,16.33
2022-11-24T15:41:01.500Z,16.80
2022-11-24T15:43:36.141Z,15.43
2022-11-24T15:46:05.319Z,17.50
2022-11-24T15:48:32.910Z,14.73
2022-11-24T15:51:03.687Z,16.65
2022-11-24T15:53:34.200Z,16.90
2022-11-24T15:56:03.096Z,17.35
2022-11-24T15:58:30.641Z,21.42
2022-11-24T16:00:58.372Z,18.42
2022-11-24T16:06:24.770Z,16.60
2022-11-24T16:08:53.728Z,14.63
2022-11-24T16:11:22.069Z,19.77
2022-11-24T16:13:52.979Z,16.02
2022-11-24T16:16:22.792Z,21.08
2022-11-24T16:18:50.769Z,22.80
2022-11-24T16:21:18.378Z,14.38
2022-11-24T16:23:46.580Z,21.38
2022-11-24T16:26:14.196Z,19.92
2022-11-24T16:28:42.806Z,14.70
2022-11-24T16:31:10.682Z,18.50
2022-11-24T16:33:40.742Z,17.27
2022-11-24T16:36:09.150Z,16.17
2022-11-24T16:38:36.716Z,17.80
2022-11-24T16:41:04.299Z,14.55
2022-11-24T16:43:31.930Z,18.52
2022-11-24T16:46:19.612Z,20.00
2022-11-24T16:48:52.440Z,16.95
2022-11-24T16:51:22.064Z,11.85
2022-11-24T16:53:56.730Z,20.27
2022-11-24T16:56:24.384Z,16.70
2022-11-24T16:58:51.983Z,22.42
2022-11-24T17:01:19.589Z,20.00
2022-11-24T17:03:47.195Z,14.68
2022-11-24T17:06:16.439Z,11.80
2022-11-24T17:08:45.183Z,15.90
2022-11-24T17:11:13.738Z,18.10
2022-11-24T17:13:42.070Z,16.60
2022-11-24T17:16:14.885Z,21.13
2022-11-24T17:18:43.033Z,16.23
2022-11-24T17:21:24.792Z,19.27
2022-11-24T17:23:57.264Z,15.18
2022-11-24T17:26:25.445Z,10.10
2022-11-24T17:28:53.653Z,11.27
2022-11-24T17:31:22.629Z,10.75
2022-11-24T17:33:55.246Z,14.57
2022-11-24T17:36:23.380Z,10.25
2022-11-24T17:38:51.014Z,17.90
2022-11-24T17:41:19.019Z,13.75
2022-11-24T17:43:50.560Z,20.70
2022-11-24T17:46:18.478Z,20.42
2022-11-24T17:48:46.929Z,19.83
2022-11-24T17:51:16.538Z,16.83
2022-11-24T17:53:45.964Z,10.52
2022-11-24T17:56:18.634Z,13.27
2022-11-24T17:58:46.284Z,11.38
2022-11-24T18:01:15.379Z,15.02
2022-11-24T18:03:42.978Z,17.65
2022-11-24T18:06:15.365Z,17.02
2022-11-24T18:08:45.296Z,16.67
2022-11-24T18:11:19.970Z,14.98
2022-11-24T18:13:58.475Z,18.83
2022-11-24T18:16:30.266Z,17.20
2022-11-24T18:19:07.829Z,12.45
2022-11-24T18:21:38.498Z,15.70
2022-11-24T18:24:06.813Z,14.93
2022-11-24T18:26:34.474Z,15.77
2022-11-24T18:29:02.086Z,15.23
2022-11-24T18:31:31.271Z,14.32
2022-11-24T18:34:00.255Z,18.27
2022-11-24T18:36:30.576Z,14.27
2022-11-24T18:39:09.113Z,18.25
2022-11-24T18:41:36.690Z,16.25
2022-11-24T18:44:07.918Z,14.68
2022-11-24T18:46:36.044Z,16.52
2022-11-24T18:49:03.731Z,13.27
2022-11-24T18:51:31.299Z,19.90
2022-11-24T18:53:58.980Z,19.38
2022-11-24T18:56:27.177Z,17.63
2022-11-24T18:58:56.013Z,15.68
2022-11-24T19:01:26.336Z,15.27
2022-11-24T19:03:56.311Z,16.25
2022-11-24T19:06:32.243Z,18.25
2022-11-24T19:09:02.929Z,15.90
2022-11-24T19:11:36.052Z,15.57
2022-11-24T19:14:06.187Z,16.77
2022-11-24T19:16:34.432Z,16.35
2022-11-24T19:19:02.973Z,18.27
2022-11-24T19:21:38.550Z,13.82
2022-11-24T19:24:07.664Z,17.02
2022-11-24T19:26:35.518Z,14.13
2022-11-24T19:29:03.578Z,14.95
2022-11-24T19:31:31.541Z,17.35
2022-11-24T19:33:59.781Z,17.08
2022-11-24T19:36:27.875Z,17.20
2022-11-24T19:38:56.702Z,18.98
2022-11-24T19:41:26.787Z,16.73
2022-11-24T19:43:54.788Z,15.07
2022-11-24T19:46:26.166Z,14.50
2022-11-24T19:48:56.191Z,16.80
2022-11-24T19:51:27.231Z,19.05
2022-11-24T19:53:57.686Z,17.83
2022-11-24T19:56:27.481Z,13.73
2022-11-24T19:58:56.130Z,16.92
2022-11-24T20:01:26.387Z,16.40
2022-11-24T20:04:02.134Z,17.50
2022-11-24T20:06:32.575Z,12.90
2022-11-24T20:09:00.814Z,16.10
2022-11-24T20:11:29.136Z,15.27
2022-11-24T20:13:57.840Z,16.58
2022-11-24T20:16:28.202Z,14.70
2022-11-24T20:19:07.477Z,14.20
2022-11-24T20:21:37.167Z,16.95
2022-11-24T20:24:06.242Z,17.00
2022-11-24T20:26:36.590Z,13.40
2022-11-24T20:29:04.783Z,13.95
2022-11-24T20:31:34.645Z,15.25
2022-11-24T20:34:03.785Z,16.85
2022-11-24T20:36:32.501Z,17.70
2022-11-24T20:39:03.103Z,15.88
2022-11-24T20:41:33.894Z,15.85
2022-11-24T20:44:08.149Z,18.08
2022-11-24T20:46:38.123Z,17.27
2022-11-24T20:49:06.772Z,16.50
2022-11-24T20:51:37.084Z,16.50
2022-11-24T20:54:07.565Z,13.27
2022-11-24T20:56:37.164Z,14.63
2022-11-24T20:59:04.876Z,14.95
2022-11-24T21:01:38.643Z,16.77
2022-11-24T21:04:08.591Z,21.08
2022-11-24T21:06:36.646Z,16.92
2022-11-24T21:09:05.585Z,15.70
2022-11-24T21:11:33.534Z,12.55
2022-11-24T21:14:01.656Z,12.93
2022-11-24T21:16:34.290Z,16.48
2022-11-24T21:19:06.918Z,14.68
2022-11-24T21:21:36.261Z,16.88
2022-11-24T21:24:15.437Z,15.95
2022-11-24T21:26:44.268Z,17.55
2022-11-24T21:29:17.134Z,14.05
2022-11-24T21:31:44.892Z,16.38
2022-11-24T21:34:16.411Z,16.30
2022-11-24T21:36:45.170Z,17.60
2022-11-24T21:39:14.048Z,8.20
2022-11-24T21:41:42.309Z,15.80
2022-11-24T21:44:14.567Z,15.10
2022-11-24T21:46:48.273Z,16.00
2022-11-24T21:51:46.167Z,20.20
2022-11-24T21:54:13.831Z,16.90
2022-11-24T21:56:41.371Z,16.38
2022-11-24T21:59:08.946Z,20.58
2022-11-24T22:01:36.563Z,14.52
2022-11-24T22:04:04.350Z,16.77
2022-11-24T22:06:33.253Z,16.48
2022-11-24T22:09:00.963Z,18.90
2022-11-24T22:11:28.561Z,13.95
2022-11-24T22:13:56.123Z,16.30
2022-11-24T22:16:24.916Z,17.65
2022-11-24T22:18:52.729Z,17.75
2022-11-24T22:21:30.515Z,17.23
2022-11-24T22:23:58.335Z,15.75
2022-11-24T22:26:26.777Z,16.70
2022-11-24T22:28:55.948Z,14.63
2022-11-24T22:31:25.416Z,14.30
2022-11-24T22:33:53.925Z,15.32
2022-11-24T22:36:23.544Z,13.63
2022-11-24T22:38:55.625Z,19.77
2022-11-24T22:41:23.455Z,18.73
2022-11-24T22:43:51.578Z,14.82
2022-11-24T22:46:21.286Z,17.65
2022-11-24T22:48:49.898Z,15.98
2022-11-24T22:51:23.951Z,17.15
2022-11-24T22:54:02.812Z,17.70
2022-11-24T22:56:33.721Z,14.65
2022-11-24T22:59:02.265Z,16.60
2022-11-24T23:01:30.653Z,16.25
2022-11-24T23:03:58.307Z,17.38
2022-11-24T23:06:28.675Z,15.02
2022-11-24T23:08:57.984Z,12.45
2022-11-24T23:11:38.413Z,18.90
2022-11-24T23:14:14.025Z,18.95
2022-11-24T23:16:42.487Z,19.30
2022-11-24T23:19:10.275Z,19.50
2022-11-24T23:21:38.684Z,14.75
2022-11-24T23:24:07.418Z,14.65
2022-11-24T23:26:38.535Z,12.05
2022-11-24T23:29:06.812Z,14.90
2022-11-24T23:31:34.786Z,15.15
2022-11-24T23:34:04.187Z,12.63
2022-11-24T23:36:32.594Z,12.27
2022-11-24T23:39:08.529Z,13.23
2022-11-24T23:41:36.240Z,15.02
2022-11-24T23:44:03.886Z,17.17
2022-11-24T23:46:31.842Z,14.55
2022-11-24T23:48:59.800Z,20.15
2022-11-24T23:51:32.060Z,14.30
2022-11-24T23:54:00.458Z,18.95
2022-11-24T23:56:33.698Z,14.02
2022-11-24T23:59:02.699Z,17.05
